Hauptseite
METAR-TAF:

METAR-TAF

Flughäfen :

St. Gallen, Schweiz

Flugplatz St. Gallen-Altenrhein

Breite: 47-29-06N, Länge: 009-33-43E, Höhe: 398 m

Beobachtung

Neuester Wetterbericht von vor 34 Minuten, um 08:20 UTC
Wind 6 kt aus West/Nordwest
Temperatur 4°C
Luftfeuchtigkeit 87%
Luftdruck 1011 hPa
Sichtweite 10 km oder mehr
keine Wolken unter 1500 m und keine Kumulonimbus oder Gewitterwolken

METAR: LSZR 270820Z 29006KT CAVOK 04/02 Q1011 NOSIG RMK C

Zeit: 09:54 (08:54 UTC)

Prognose

Neuester Wetterbericht von vor 29 Minuten, um 08:25 UTC
Gültige Prognose vom 27 um 09 UTC bis 27 um 18 UTC
Wind 3 kt aus unterschiedlichen Richtungen
Sichtweite 10 km oder mehr
keine Wolken unter 1500 m und keine Kumulonimbus oder Gewitterwolken

TAF: LSZR 270825Z 2709/2718 VRB03KT CAVOK

Wetterbeobachtungen und Prognosen von mehr als 4000 Flughäfen (METAR und TAF Bericht).

Die verfügbaren Stationen werden durch gelbe und rote Markierungen auf der Karte dargestellt.

Führen Sie die Maus auf sie, um den Namen der Station zu sehen.

Darauf klicken, um die Beobachtung von Wetterbeobachtungen und Prognosen zu sehen.

Um die Karte zu ändern : klicken Sie auf den grünen Tasten mit einem schwarzen Kreuz Zum Vergrößern, auf den grünen Button mit einem Gedankenstrich zu verkleinern, oder auf die grünen Pfeile für benachbarte Karten.


METAR-TAF: